Time;durP1;ratioP1;P1;durP2;ratioP2;P2;SDS_P1;SDS_P2;PMS_P1;PMS_P2;Temp;Humidity;BMP_temperature;BMP_pressure;BME280_temperature;BME280_humidity;BME280_pressure;Samples;Min_cycle;Max_cycle;Signal;HPM_P1;HPM_P2
2024/01/14 00:00:33;;;;;;;10.10;7.70;;;;;;;3.10;100.00;99307.13;177860;1263;45925;-86
2024/01/14 00:04:57;;;;;;;11.30;6.70;;;;;;;3.11;100.00;99300.09;177326;1264;61737;-87
2024/01/14 00:09:01;;;;;;;13.20;8.70;;;;;;;3.11;100.00;99300.58;177810;1264;45811;-85
2024/01/14 00:13:04;;;;;;;11.10;7.50;;;;;;;3.12;100.00;99304.59;177474;1263;46129;-87
2024/01/14 00:17:10;;;;;;;16.00;7.70;;;;;;;3.11;100.00;99297.80;177629;1264;46234;-86
2024/01/14 00:21:14;;;;;;;14.60;8.00;;;;;;;3.11;100.00;99291.48;177158;1264;46054;-86
2024/01/14 00:25:19;;;;;;;9.90;6.60;;;;;;;3.09;100.00;99282.90;177438;1263;58280;-86
2024/01/14 00:29:22;;;;;;;9.10;6.30;;;;;;;3.11;100.00;99274.17;177589;1264;46210;-87
2024/01/14 00:33:26;;;;;;;7.80;6.20;;;;;;;3.10;100.00;99273.54;177167;1263;44725;-87
2024/01/14 00:37:30;;;;;;;10.90;8.60;;;;;;;3.11;100.00;99274.46;177246;1263;46234;-84
2024/01/14 00:41:33;;;;;;;10.40;6.60;;;;;;;3.16;100.00;99270.51;177101;1263;46014;-84
2024/01/14 00:45:37;;;;;;;11.30;7.50;;;;;;;3.19;100.00;99260.31;177028;1263;57928;-86
2024/01/14 00:49:40;;;;;;;10.90;6.20;;;;;;;3.23;100.00;99251.79;177589;1263;46124;-85
2024/01/14 00:53:44;;;;;;;9.90;7.90;;;;;;;3.25;100.00;99238.52;177297;1262;46105;-86
2024/01/14 00:57:47;;;;;;;14.50;9.00;;;;;;;3.29;100.00;99228.24;176728;1264;46072;-86
2024/01/14 01:01:50;;;;;;;14.90;7.10;;;;;;;3.30;100.00;99217.66;176965;1264;46159;-85
2024/01/14 01:05:54;;;;;;;11.40;8.10;;;;;;;3.35;100.00;99215.44;176953;1264;59574;-86
2024/01/14 01:09:57;;;;;;;11.70;8.20;;;;;;;3.38;100.00;99208.73;177398;1263;46767;-87
2024/01/14 01:14:01;;;;;;;14.30;10.40;;;;;;;3.42;100.00;99191.67;177379;1264;46167;-86
2024/01/14 01:18:04;;;;;;;12.10;8.80;;;;;;;3.41;100.00;99188.21;177517;1263;45972;-87
2024/01/14 01:22:08;;;;;;;8.60;6.30;;;;;;;3.40;100.00;99179.86;177653;1265;46215;-86
2024/01/14 01:26:11;;;;;;;8.50;6.10;;;;;;;3.43;100.00;99179.13;176917;1264;59283;-86
2024/01/14 01:30:15;;;;;;;11.30;6.70;;;;;;;3.45;100.00;99175.33;176702;1262;46040;-86
2024/01/14 01:34:18;;;;;;;7.90;5.90;;;;;;;3.44;100.00;99170.64;177735;1263;46068;-86
2024/01/14 01:38:22;;;;;;;9.20;5.80;;;;;;;3.39;100.00;99159.59;177346;1264;46231;-86
2024/01/14 01:42:25;;;;;;;8.90;5.60;;;;;;;3.30;100.00;99153.18;177555;1261;46119;-86
2024/01/14 01:46:30;;;;;;;10.70;7.00;;;;;;;3.20;100.00;99144.59;176998;1263;58220;-85
2024/01/14 01:50:36;;;;;;;7.40;5.60;;;;;;;3.14;100.00;99140.78;177295;1263;46174;-86
2024/01/14 01:54:40;;;;;;;7.50;5.70;;;;;;;3.07;100.00;99134.82;177482;1262;46095;-86
2024/01/14 01:58:44;;;;;;;9.70;6.10;;;;;;;3.00;100.00;99127.27;176999;1263;46107;-86
2024/01/14 02:02:48;;;;;;;10.00;5.00;;;;;;;2.97;100.00;99121.65;177531;1261;46104;-87
2024/01/14 02:06:52;;;;;;;8.40;6.00;;;;;;;2.97;100.00;99118.64;177227;1264;59570;-87
2024/01/14 02:10:55;;;;;;;8.50;5.70;;;;;;;2.96;100.00;99110.51;177129;1263;46017;-87
2024/01/14 02:14:59;;;;;;;8.00;5.00;;;;;;;2.97;100.00;99108.86;177277;1263;45969;-87
2024/01/14 02:19:02;;;;;;;13.10;6.90;;;;;;;2.89;100.00;99102.39;177300;1264;44430;-87
2024/01/14 02:23:10;;;;;;;7.50;4.90;;;;;;;2.85;100.00;99097.92;177291;1264;44039;-87
2024/01/14 02:27:13;;;;;;;9.70;5.50;;;;;;;2.75;100.00;99092.52;177601;1264;58042;-86
2024/01/14 02:31:18;;;;;;;8.90;4.60;;;;;;;2.70;100.00;99084.25;177528;1262;46158;-86
2024/01/14 02:35:21;;;;;;;5.60;3.70;;;;;;;2.69;100.00;99078.55;176837;1263;45741;-86
2024/01/14 02:39:25;;;;;;;6.00;4.40;;;;;;;2.62;100.00;99075.20;177366;1264;46059;-86
2024/01/14 02:43:28;;;;;;;8.60;6.20;;;;;;;2.56;100.00;99064.16;177221;1263;46114;-85
2024/01/14 02:47:31;;;;;;;7.70;5.40;;;;;;;2.59;100.00;99068.39;176945;1264;59584;-87
2024/01/14 02:51:34;;;;;;;9.80;6.40;;;;;;;2.56;100.00;99057.22;177092;1263;46132;-85
2024/01/14 02:55:38;;;;;;;7.70;4.80;;;;;;;2.55;100.00;99053.02;177297;1263;46014;-86
2024/01/14 02:59:41;;;;;;;7.50;4.40;;;;;;;2.58;100.00;99050.96;177849;1264;46041;-87
2024/01/14 03:03:44;;;;;;;6.10;4.20;;;;;;;2.63;100.00;99054.43;176995;1263;46114;-87
2024/01/14 03:07:48;;;;;;;5.30;4.40;;;;;;;2.70;100.00;99060.61;176804;1262;57380;-86
2024/01/14 03:11:51;;;;;;;8.00;4.90;;;;;;;2.77;100.00;99058.23;176726;1264;46130;-87
2024/01/14 03:15:54;;;;;;;10.00;4.20;;;;;;;2.78;100.00;99048.70;177063;1266;46757;-86
2024/01/14 03:19:58;;;;;;;5.10;4.00;;;;;;;2.81;100.00;99053.88;177043;1263;44440;-87
2024/01/14 03:24:01;;;;;;;5.40;3.90;;;;;;;2.84;100.00;99050.73;177311;1263;46005;-86
2024/01/14 03:28:04;;;;;;;7.20;5.10;;;;;;;2.87;100.00;99057.92;176735;1263;58223;-86
2024/01/14 03:32:08;;;;;;;8.30;6.30;;;;;;;2.90;100.00;99050.17;176822;1262;46047;-86
2024/01/14 03:36:15;;;;;;;4.90;4.50;;;;;;;2.94;100.00;99038.32;177113;1262;46087;-86
2024/01/14 03:40:18;;;;;;;4.60;4.10;;;;;;;3.00;100.00;99040.33;176909;1264;46005;-86
2024/01/14 03:44:21;;;;;;;6.00;4.20;;;;;;;3.08;100.00;99034.23;177236;1263;46194;-86
2024/01/14 03:48:24;;;;;;;7.20;4.40;;;;;;;3.08;100.00;99032.83;176869;1262;57919;-85
2024/01/14 03:52:28;;;;;;;5.20;3.80;;;;;;;3.09;100.00;99032.00;177157;1264;46436;-87
2024/01/14 03:56:31;;;;;;;8.80;6.40;;;;;;;3.11;100.00;99038.21;176874;1263;46102;-87
2024/01/14 04:00:34;;;;;;;7.50;6.80;;;;;;;3.05;100.00;99031.46;176911;1263;46131;-86
2024/01/14 04:04:37;;;;;;;5.30;4.20;;;;;;;3.05;100.00;99025.84;177179;1266;46104;-86
2024/01/14 04:08:41;;;;;;;8.10;3.90;;;;;;;3.05;100.00;99021.10;176811;1264;59574;-86
2024/01/14 04:12:44;;;;;;;5.20;4.30;;;;;;;3.04;100.00;99022.95;176990;1263;46004;-85
2024/01/14 04:16:47;;;;;;;4.30;3.80;;;;;;;3.06;100.00;99021.05;177741;1264;46124;-86
2024/01/14 04:20:50;;;;;;;6.10;4.20;;;;;;;3.05;100.00;99020.03;177110;1263;46111;-86
2024/01/14 04:24:53;;;;;;;4.00;3.60;;;;;;;3.04;100.00;99018.90;177397;1262;46014;-86
2024/01/14 04:28:57;;;;;;;7.00;4.50;;;;;;;3.04;100.00;99022.93;177076;1264;58994;-87
2024/01/14 04:33:00;;;;;;;7.00;4.50;;;;;;;3.04;100.00;99031.88;177268;1263;46064;-87
2024/01/14 04:37:04;;;;;;;4.20;3.40;;;;;;;3.04;100.00;99018.36;176778;1262;46040;-87
2024/01/14 04:41:07;;;;;;;4.90;4.00;;;;;;;3.07;100.00;99017.46;177656;1264;46183;-86
2024/01/14 04:45:10;;;;;;;5.90;4.00;;;;;;;3.02;100.00;99008.70;177634;1263;45930;-86
2024/01/14 04:49:13;;;;;;;5.90;4.30;;;;;;;3.00;100.00;99007.05;177277;1264;59269;-86
2024/01/14 04:53:17;;;;;;;4.00;3.70;;;;;;;2.96;100.00;99005.23;177276;1264;46114;-87
2024/01/14 04:57:20;;;;;;;5.50;4.20;;;;;;;2.93;100.00;99007.02;177493;1264;46005;-86
2024/01/14 05:01:23;;;;;;;7.80;4.80;;;;;;;2.91;100.00;99001.37;177586;1264;46020;-87
2024/01/14 05:05:26;;;;;;;5.70;4.20;;;;;;;2.90;100.00;98993.90;177170;1262;44858;-85
2024/01/14 05:09:29;;;;;;;7.30;4.40;;;;;;;2.88;100.00;98986.70;177276;1266;56976;-87
2024/01/14 05:13:33;;;;;;;7.30;5.00;;;;;;;2.87;100.00;98990.63;176853;1262;218332;-86
2024/01/14 05:17:36;;;;;;;6.80;4.30;;;;;;;2.86;100.00;98986.35;177388;1264;46120;-87
2024/01/14 05:21:39;;;;;;;4.10;3.50;;;;;;;2.84;100.00;98982.48;177453;1263;46016;-86
2024/01/14 05:25:42;;;;;;;6.90;3.60;;;;;;;2.83;100.00;98984.10;177427;1266;46104;-86
2024/01/14 05:29:46;;;;;;;2.80;2.40;;;;;;;2.83;100.00;98980.38;177314;1263;58600;-86
2024/01/14 05:33:49;;;;;;;6.10;4.90;;;;;;;2.86;100.00;98986.85;176637;1262;46495;-87
2024/01/14 05:37:52;;;;;;;4.90;4.00;;;;;;;2.85;100.00;98980.66;176969;1262;46037;-86
2024/01/14 05:41:55;;;;;;;7.00;4.50;;;;;;;2.85;100.00;98990.07;176748;1264;46027;-87
2024/01/14 05:45:59;;;;;;;4.10;3.30;;;;;;;2.83;100.00;98990.05;177377;1263;46031;-87
2024/01/14 05:50:02;;;;;;;4.60;3.80;;;;;;;2.85;100.00;98991.29;177371;1263;59597;-87
2024/01/14 05:54:06;;;;;;;7.60;4.60;;;;;;;2.84;100.00;98984.73;177579;1264;46058;-83
2024/01/14 05:58:09;;;;;;;6.00;3.80;;;;;;;2.81;100.00;98977.96;177318;1264;46126;-86
2024/01/14 06:02:12;;;;;;;5.30;3.90;;;;;;;2.89;100.00;98980.54;177020;1264;46033;-87
2024/01/14 06:06:16;;;;;;;4.70;4.20;;;;;;;2.85;100.00;98987.85;177259;1265;46000;-87
2024/01/14 06:10:19;;;;;;;7.20;5.50;;;;;;;2.84;100.00;98987.39;177430;1264;57954;-87
2024/01/14 06:14:22;;;;;;;5.90;4.80;;;;;;;2.88;100.00;98983.45;177269;1263;46152;-87
2024/01/14 06:18:28;;;;;;;6.80;4.80;;;;;;;2.86;100.00;98986.70;177637;1263;45983;-87
2024/01/14 06:22:31;;;;;;;4.10;3.60;;;;;;;2.87;100.00;98986.12;177723;1262;46093;-86
2024/01/14 06:26:35;;;;;;;6.50;5.50;;;;;;;2.81;100.00;98985.63;177020;1264;46060;-86
2024/01/14 06:30:38;;;;;;;5.90;4.10;;;;;;;2.78;100.00;98983.23;177237;1264;58023;-86
2024/01/14 06:34:42;;;;;;;6.80;5.00;;;;;;;2.70;100.00;98983.27;177265;1263;46095;-86
2024/01/14 06:38:46;;;;;;;5.80;3.60;;;;;;;2.74;100.00;98981.94;177134;1266;46043;-86
2024/01/14 06:42:49;;;;;;;3.40;2.70;;;;;;;2.63;100.00;98973.21;177113;1265;46164;-86
2024/01/14 06:46:53;;;;;;;7.10;4.40;;;;;;;2.57;100.00;98963.13;177590;1265;45960;-84
2024/01/14 06:50:56;;;;;;;4.30;3.40;;;;;;;2.52;100.00;98981.67;177302;1264;59580;-86
2024/01/14 06:54:59;;;;;;;5.10;3.30;;;;;;;2.50;100.00;98991.48;177455;1263;46444;-85
2024/01/14 06:59:03;;;;;;;6.20;4.40;;;;;;;2.49;100.00;98990.14;177564;1263;46050;-85
2024/01/14 07:03:06;;;;;;;8.30;4.30;;;;;;;2.54;100.00;99006.42;177610;1263;46015;-85
2024/01/14 07:07:09;;;;;;;4.40;4.00;;;;;;;2.46;100.00;99024.80;177794;1265;46030;-86
2024/01/14 07:11:12;;;;;;;5.20;4.40;;;;;;;2.46;100.00;99029.49;177187;1263;57425;-86
2024/01/14 07:15:15;;;;;;;7.70;5.50;;;;;;;2.56;100.00;99034.42;177079;1263;46203;-84
2024/01/14 07:19:19;;;;;;;6.40;4.20;;;;;;;2.61;100.00;99034.60;177630;1264;45917;-86
2024/01/14 07:23:22;;;;;;;10.40;6.00;;;;;;;2.73;100.00;99039.97;177020;1264;46024;-86
2024/01/14 07:27:45;;;;;;;5.50;4.00;;;;;;;2.79;100.00;99047.96;177504;1262;46115;-86
2024/01/14 07:31:49;;;;;;;5.60;4.70;;;;;;;2.62;100.00;99053.62;177484;1265;59694;-84
2024/01/14 07:35:52;;;;;;;7.40;4.80;;;;;;;2.53;100.00;99061.41;177021;1262;44846;-86
2024/01/14 07:39:55;;;;;;;5.80;4.60;;;;;;;2.51;100.00;99061.20;177491;1264;44797;-86
2024/01/14 07:43:58;;;;;;;6.30;4.50;;;;;;;2.48;100.00;99062.48;177039;1263;46112;-82
2024/01/14 07:48:02;;;;;;;9.70;5.80;;;;;;;2.41;100.00;99049.98;177033;1265;46132;-87
2024/01/14 07:52:05;;;;;;;6.10;4.80;;;;;;;2.39;100.00;99048.73;177307;1265;59595;-86
2024/01/14 07:56:09;;;;;;;5.90;4.50;;;;;;;2.41;100.00;99052.94;177470;1265;45972;-85
2024/01/14 08:00:13;;;;;;;7.00;4.50;;;;;;;2.54;100.00;99045.42;177518;1264;46129;-86
2024/01/14 08:04:16;;;;;;;6.60;4.50;;;;;;;2.63;100.00;99056.77;177025;1264;45981;-86
2024/01/14 08:08:20;;;;;;;7.20;3.70;;;;;;;2.45;100.00;99059.00;177334;1265;44966;-86
2024/01/14 08:12:23;;;;;;;10.30;5.10;;;;;;;2.28;100.00;99065.38;177571;1264;59558;-84
2024/01/14 08:16:26;;;;;;;7.40;5.10;;;;;;;2.33;100.00;99068.72;177798;1263;46005;-85
2024/01/14 08:20:31;;;;;;;5.60;4.70;;;;;;;2.52;100.00;99068.31;177475;1263;44634;-86
2024/01/14 08:24:34;;;;;;;7.10;5.60;;;;;;;2.66;100.00;99063.13;176898;1264;46023;-85
2024/01/14 08:28:37;;;;;;;10.00;5.60;;;;;;;2.81;100.00;99060.39;177047;1265;46120;-84
2024/01/14 08:32:41;;;;;;;8.40;5.70;;;;;;;2.94;100.00;99060.55;178135;1263;60083;-85
2024/01/14 08:36:44;;;;;;;4.30;3.90;;;;;;;3.02;100.00;99061.62;177562;1264;46138;-84
2024/01/14 08:40:47;;;;;;;5.80;4.20;;;;;;;2.81;100.00;99070.88;177043;1267;46138;-84
2024/01/14 08:44:51;;;;;;;10.80;7.80;;;;;;;2.79;100.00;99075.09;177266;1264;46075;-83
2024/01/14 08:48:54;;;;;;;9.50;5.90;;;;;;;2.91;100.00;99082.13;176290;1264;46149;-84
2024/01/14 08:52:58;;;;;;;5.30;4.10;;;;;;;3.02;100.00;99086.42;177070;1263;59712;-85
2024/01/14 08:57:01;;;;;;;6.80;5.50;;;;;;;3.11;100.00;99081.63;177478;1264;46117;-85
2024/01/14 09:01:08;;;;;;;8.30;6.40;;;;;;;3.05;100.00;99090.83;177993;1263;46112;-83
2024/01/14 09:05:12;;;;;;;7.50;6.80;;;;;;;2.70;100.00;99099.33;177335;1265;45992;-82
2024/01/14 09:09:15;;;;;;;8.70;6.20;;;;;;;2.65;100.00;99092.83;178021;1264;44848;-83
2024/01/14 09:13:19;;;;;;;11.20;6.70;;;;;;;2.71;100.00;99088.72;177137;1264;57443;-83
2024/01/14 09:17:22;;;;;;;8.80;6.90;;;;;;;2.79;100.00;99084.33;177611;1262;46120;-83
2024/01/14 09:21:25;;;;;;;8.50;5.80;;;;;;;2.85;100.00;99084.83;177116;1266;45984;-83
2024/01/14 09:25:28;;;;;;;9.10;6.30;;;;;;;2.87;100.00;99084.48;176640;1266;46088;-83
2024/01/14 09:29:32;;;;;;;8.10;4.80;;;;;;;2.87;100.00;99082.96;176935;1265;46069;-81
2024/01/14 09:33:35;;;;;;;11.00;7.20;;;;;;;2.84;100.00;99082.77;177082;1263;58213;-83
2024/01/14 09:37:38;;;;;;;6.70;5.30;;;;;;;2.88;100.00;99091.80;177880;1263;46004;-83
2024/01/14 09:41:55;;;;;;;6.40;5.50;;;;;;;2.96;100.00;99083.71;177828;1264;46130;-82
2024/01/14 09:45:59;;;;;;;5.80;5.20;;;;;;;2.97;100.00;99079.25;177033;1264;46011;-82
2024/01/14 09:50:03;;;;;;;6.80;5.20;;;;;;;3.01;100.00;99083.58;177151;1265;46181;-83
2024/01/14 09:54:06;;;;;;;13.20;7.10;;;;;;;3.06;100.00;99086.38;177054;1263;57764;-83
2024/01/14 09:58:12;;;;;;;9.10;5.80;;;;;;;3.03;100.00;99083.79;177277;1264;46262;-83
2024/01/14 10:02:16;;;;;;;10.90;6.00;;;;;;;3.07;100.00;99074.92;177498;1262;45940;-82
2024/01/14 10:06:19;;;;;;;6.00;4.20;;;;;;;2.97;100.00;99072.05;177254;1264;45999;-82
2024/01/14 10:10:25;;;;;;;5.30;4.70;;;;;;;3.00;100.00;99074.50;176692;1267;46175;-83
2024/01/14 10:14:28;;;;;;;9.70;5.50;;;;;;;3.02;100.00;99070.52;176906;1264;59273;-83
2024/01/14 10:18:31;;;;;;;9.20;5.20;;;;;;;2.86;100.00;99073.52;177800;1264;46038;-83
2024/01/14 10:22:35;;;;;;;8.20;5.20;;;;;;;2.92;100.00;99061.95;177495;1262;46117;-83
2024/01/14 10:26:38;;;;;;;6.20;4.40;;;;;;;3.07;100.00;99058.77;177476;1263;45996;-83
2024/01/14 10:30:41;;;;;;;6.90;6.20;;;;;;;3.22;100.00;99049.48;177986;1262;46062;-87
2024/01/14 10:34:45;;;;;;;9.50;8.50;;;;;;;3.53;100.00;99050.64;177865;1262;59596;-87
2024/01/14 10:38:52;;;;;;;11.30;7.20;;;;;;;3.73;100.00;99045.18;178463;1262;46117;-86
2024/01/14 10:42:55;;;;;;;7.00;5.20;;;;;;;3.82;100.00;99045.58;179034;1264;46231;-82
2024/01/14 10:47:03;;;;;;;6.00;4.00;;;;;;;3.77;100.00;99034.89;179643;1263;44538;-84
2024/01/14 10:51:11;;;;;;;10.90;6.10;;;;;;;3.78;100.00;99038.65;178644;1265;46041;-82
2024/01/14 10:55:20;;;;;;;7.20;5.70;;;;;;;3.82;100.00;99033.61;179533;1265;59307;-82
2024/01/14 10:59:27;;;;;;;9.00;5.60;;;;;;;3.81;100.00;99022.16;178453;1264;46403;-81
2024/01/14 11:03:33;;;;;;;6.50;5.70;;;;;;;3.79;100.00;99021.92;178833;1263;44455;-83
2024/01/14 11:07:37;;;;;;;5.50;4.80;;;;;;;3.79;100.00;99018.21;179725;1264;44475;-83
2024/01/14 11:11:57;;;;;;;6.10;4.90;;;;;;;3.76;100.00;99022.33;179462;1264;46201;-84
2024/01/14 11:26:49;;;;;;;8.30;5.60;;;;;;;3.87;100.00;98996.64;178731;1269;44907;-61
2024/01/14 11:30:55;;;;;;;5.60;4.80;;;;;;;4.00;100.00;98986.88;178723;1269;46009;-61
2024/01/14 11:35:02;;;;;;;4.30;3.90;;;;;;;4.17;100.00;98990.71;178685;1269;44044;-60
2024/01/14 11:39:16;;;;;;;6.80;4.00;;;;;;;4.17;100.00;98983.85;178847;1269;57470;-60
2024/01/14 11:43:25;;;;;;;3.80;2.70;;;;;;;4.05;100.00;98987.71;178637;1270;45957;-61
2024/01/14 11:47:46;;;;;;;3.10;2.80;;;;;;;3.77;100.00;98980.84;178491;1269;43634;-61
2024/01/14 11:52:07;;;;;;;3.60;2.80;;;;;;;3.65;100.00;98980.55;178545;1270;45954;-60
2024/01/14 11:56:13;;;;;;;7.50;3.40;;;;;;;3.69;100.00;98974.41;178519;1270;46095;-60
2024/01/14 12:00:24;;;;;;;5.50;2.60;;;;;;;3.64;100.00;98977.95;178889;1270;58476;-61
2024/01/14 12:04:32;;;;;;;6.00;3.20;;;;;;;3.36;100.00;98979.13;178574;1270;43712;-60
2024/01/14 12:08:40;;;;;;;5.40;3.90;;;;;;;3.09;100.00;98984.58;178591;1270;44019;-61
2024/01/14 12:12:44;;;;;;;6.50;4.30;;;;;;;3.13;100.00;98979.88;178175;1269;45932;-62
2024/01/14 12:16:48;;;;;;;8.60;4.40;;;;;;;3.21;100.00;98978.98;178811;1269;46053;-61
2024/01/14 12:20:52;;;;;;;6.60;4.70;;;;;;;3.20;100.00;98976.61;178325;1270;58454;-61
2024/01/14 12:24:56;;;;;;;5.30;3.60;;;;;;;3.32;100.00;98973.25;178613;1268;45970;-61
2024/01/14 12:29:33;;;;;;;5.70;3.20;;;;;;;3.46;100.00;98958.39;178740;1270;45977;-62
2024/01/14 12:33:36;;;;;;;7.70;3.60;;;;;;;3.70;100.00;98949.14;178804;1269;46040;-61
2024/01/14 12:37:41;;;;;;;6.20;4.40;;;;;;;3.87;100.00;98950.46;178618;1269;45964;-61
2024/01/14 12:41:44;;;;;;;6.30;3.90;;;;;;;3.91;100.00;98936.88;178625;1270;58763;-61
2024/01/14 12:45:58;;;;;;;4.80;3.30;;;;;;;3.98;100.00;98930.05;178909;1269;46112;-62
2024/01/14 12:50:02;;;;;;;3.40;3.00;;;;;;;3.97;100.00;98924.65;178769;1269;43707;-60
2024/01/14 12:54:06;;;;;;;5.20;3.60;;;;;;;4.10;100.00;98924.02;178525;1269;45285;-61
2024/01/14 12:58:27;;;;;;;4.50;3.30;;;;;;;4.03;100.00;98928.43;178710;1269;45960;-61
2024/01/14 13:02:34;;;;;;;7.00;3.20;;;;;;;3.94;100.00;98930.71;178725;1269;58367;-60
2024/01/14 13:06:39;;;;;;;5.80;4.30;;;;;;;3.60;100.00;98939.69;178377;1269;44224;-61
2024/01/14 13:10:46;;;;;;;6.10;4.20;;;;;;;3.52;100.00;98931.54;178706;1269;46053;-62
2024/01/14 13:14:50;;;;;;;5.50;4.00;;;;;;;3.35;100.00;98925.54;178507;1270;44709;-62
2024/01/14 13:18:54;;;;;;;7.40;4.20;;;;;;;3.32;100.00;98913.37;178333;1270;44596;-61
2024/01/14 13:22:57;;;;;;;5.30;4.10;;;;;;;3.31;100.00;98923.38;178389;1269;59059;-62
2024/01/14 13:27:01;;;;;;;5.90;3.40;;;;;;;3.37;100.00;98926.10;178403;1269;43607;-63
2024/01/14 13:31:05;;;;;;;6.30;3.50;;;;;;;3.53;100.00;98928.98;178554;1269;45055;-61
2024/01/14 13:35:09;;;;;;;5.80;3.70;;;;;;;3.57;100.00;98934.86;178643;1268;45989;-62
2024/01/14 13:39:14;;;;;;;5.50;3.70;;;;;;;3.59;100.00;98937.15;178711;1269;43800;-62
2024/01/14 13:43:17;;;;;;;5.70;3.60;;;;;;;3.65;100.00;98938.61;178801;1270;58515;-62
2024/01/14 13:47:23;;;;;;;6.80;6.20;;;;;;;3.68;100.00;98938.36;178668;1269;43832;-61
2024/01/14 13:51:46;;;;;;;4.50;3.00;;;;;;;3.63;100.00;98925.06;178850;1268;44974;-64
2024/01/14 13:55:55;;;;;;;6.80;4.60;;;;;;;3.60;100.00;98930.56;178413;1270;43865;-61
2024/01/14 13:59:59;;;;;;;5.90;5.00;;;;;;;3.55;100.00;98921.66;179061;1268;46082;-62
2024/01/14 14:04:08;;;;;;;6.10;4.50;;;;;;;3.57;100.00;98920.08;178932;1269;58428;-61
2024/01/14 14:08:18;;;;;;;5.60;4.20;;;;;;;3.56;100.00;98912.30;178798;1269;44924;-61
2024/01/14 14:12:30;;;;;;;5.30;4.20;;;;;;;3.52;100.00;98908.36;178524;1270;43852;-62
2024/01/14 14:16:41;;;;;;;12.00;7.00;;;;;;;3.45;100.00;98914.30;178886;1268;43947;-62
2024/01/14 14:20:46;;;;;;;;;;;;;;;3.43;100.00;98911.89;178572;1269;44608;-62
2024/01/14 14:24:56;;;;;;;10.10;5.30;;;;;;;3.36;100.00;98908.83;178603;1272;58076;-61
2024/01/14 14:29:00;;;;;;;11.40;6.30;;;;;;;3.37;100.00;98907.59;178428;1270;46079;-61
2024/01/14 14:33:04;;;;;;;8.50;4.40;;;;;;;3.38;100.00;98904.29;178500;1270;45655;-62
2024/01/14 14:37:08;;;;;;;9.90;5.40;;;;;;;3.36;100.00;98895.86;178560;1270;44143;-61
2024/01/14 14:41:13;;;;;;;16.90;6.60;;;;;;;3.42;100.00;98903.31;178392;1270;44763;-62
2024/01/14 14:45:37;;;;;;;5.20;4.60;;;;;;;3.38;100.00;98900.27;178540;1270;58716;-60
2024/01/14 14:49:45;;;;;;;5.90;3.60;;;;;;;3.28;100.00;98896.27;178685;1270;43692;-63
2024/01/14 14:53:50;;;;;;;9.00;4.00;;;;;;;3.24;100.00;98899.05;178356;1269;46089;-62
2024/01/14 14:57:53;;;;;;;17.20;6.50;;;;;;;3.20;100.00;98899.64;178498;1269;44826;-61
2024/01/14 15:01:57;;;;;;;6.00;4.00;;;;;;;3.19;100.00;98899.39;178659;1272;45977;-61
2024/01/14 15:06:04;;;;;;;8.50;5.30;;;;;;;3.17;100.00;98901.67;178544;1269;59618;-62
2024/01/14 15:10:23;;;;;;;7.40;5.50;;;;;;;3.13;100.00;98885.96;178643;1269;44359;-62
2024/01/14 15:14:27;;;;;;;5.80;4.60;;;;;;;3.12;100.00;98882.69;178508;1270;44798;-61
2024/01/14 15:18:32;;;;;;;9.50;5.70;;;;;;;3.15;100.00;98877.61;178353;1270;43826;-62
2024/01/14 15:22:37;;;;;;;7.60;4.80;;;;;;;3.11;100.00;98879.26;178472;1268;45993;-62
2024/01/14 15:26:41;;;;;;;7.60;6.20;;;;;;;3.08;100.00;98877.98;178610;1269;58763;-63
2024/01/14 15:30:45;;;;;;;8.00;4.80;;;;;;;3.05;100.00;98878.73;178738;1269;46038;-62
2024/01/14 15:35:06;;;;;;;5.30;4.00;;;;;;;3.07;100.00;98875.21;178699;1270;46011;-62
2024/01/14 15:39:11;;;;;;;6.70;5.70;;;;;;;3.08;100.00;98870.61;178551;1270;44717;-61
2024/01/14 15:43:41;;;;;;;7.50;5.30;;;;;;;3.11;100.00;98870.90;178833;1269;43664;-63
2024/01/14 15:47:47;;;;;;;7.70;5.20;;;;;;;3.16;100.00;98875.14;178650;1270;58485;-62
2024/01/14 15:52:42;;;;;;;7.80;4.50;;;;;;;3.20;100.00;98874.09;178977;1270;43513;-63
2024/01/14 15:56:50;;;;;;;7.50;4.10;;;;;;;3.17;100.00;98869.91;178931;1270;45016;-62
2024/01/14 16:00:54;;;;;;;5.50;4.90;;;;;;;3.18;100.00;98867.77;178633;1269;44747;-62
2024/01/14 16:05:13;;;;;;;6.80;4.70;;;;;;;3.19;100.00;98865.39;178924;1269;43650;-62
2024/01/14 16:09:16;;;;;;;6.80;3.90;;;;;;;3.19;100.00;98865.05;178768;1269;58944;-62
2024/01/14 16:13:22;;;;;;;6.00;4.90;;;;;;;3.21;100.00;98862.09;178767;1269;46229;-62
2024/01/14 16:17:27;;;;;;;10.40;5.30;;;;;;;3.21;100.00;98857.40;178365;1270;43834;-61
2024/01/14 16:21:39;;;;;;;5.10;4.20;;;;;;;3.20;100.00;98849.91;178977;1270;45116;-61
2024/01/14 16:26:22;;;;;;;6.20;5.60;;;;;;;3.20;100.00;98844.14;178795;1268;43784;-61
2024/01/14 16:30:26;;;;;;;7.90;4.80;;;;;;;3.20;100.00;98845.73;178835;1268;58340;-61
2024/01/14 16:34:34;;;;;;;9.20;5.70;;;;;;;3.20;100.00;98840.98;178801;1269;43708;-61
2024/01/14 16:38:41;;;;;;;6.60;4.80;;;;;;;3.19;100.00;98831.63;178674;1269;43818;-62
2024/01/14 16:42:47;;;;;;;7.80;5.30;;;;;;;3.13;100.00;98827.63;178772;1269;44923;-61
2024/01/14 16:46:52;;;;;;;7.30;3.90;;;;;;;3.13;100.00;98825.32;178892;1270;43726;-62
2024/01/14 16:51:00;;;;;;;8.10;5.00;;;;;;;3.15;100.00;98819.63;178683;1270;58554;-60
2024/01/14 16:55:15;;;;;;;8.40;5.00;;;;;;;3.16;100.00;98817.66;178540;1269;44650;-61
2024/01/14 16:59:23;;;;;;;5.20;4.20;;;;;;;3.16;100.00;98816.77;178807;1270;46038;-61
2024/01/14 17:03:29;;;;;;;8.70;5.30;;;;;;;3.16;100.00;98811.15;178832;1269;46235;-60
2024/01/14 17:07:44;;;;;;;6.70;4.80;;;;;;;3.18;100.00;98807.65;178900;1269;44814;-61
2024/01/14 17:11:48;;;;;;;5.90;3.80;;;;;;;3.23;100.00;98796.64;179119;1269;58882;-61
2024/01/14 17:15:52;;;;;;;8.50;4.60;;;;;;;3.22;100.00;98791.41;178530;1269;45692;-61
2024/01/14 17:20:14;;;;;;;8.70;5.50;;;;;;;3.17;100.00;98785.84;178959;1269;45097;-62
2024/01/14 17:24:20;;;;;;;10.50;4.40;;;;;;;3.17;100.00;98783.04;178654;1270;46002;-61
2024/01/14 17:28:23;;;;;;;9.30;4.80;;;;;;;3.15;100.00;98770.77;178365;1269;43788;-61
2024/01/14 17:32:26;;;;;;;9.60;4.80;;;;;;;3.17;100.00;98771.51;178636;1270;58372;-63
2024/01/14 17:36:30;;;;;;;6.70;3.80;;;;;;;3.17;100.00;98766.38;178667;1270;46136;-61
2024/01/14 17:40:34;;;;;;;5.30;4.50;;;;;;;3.21;100.00;98759.23;178553;1270;44873;-61
2024/01/14 17:44:47;;;;;;;9.20;5.90;;;;;;;3.18;100.00;98751.59;178744;1270;43625;-62
2024/01/14 17:48:53;;;;;;;6.80;4.60;;;;;;;3.16;100.00;98740.85;178493;1269;43867;-61
2024/01/14 17:52:57;;;;;;;;;;;;;;;3.15;100.00;98732.91;178689;1270;58272;-61
2024/01/14 17:57:09;;;;;;;9.30;4.80;;;;;;;3.13;100.00;98724.66;178553;1270;44805;-61
2024/01/14 18:01:22;;;;;;;9.70;5.20;;;;;;;3.10;100.00;98716.77;178509;1270;45912;-61
2024/01/14 18:05:26;;;;;;;9.10;6.20;;;;;;;3.13;100.00;98714.48;178530;1270;45948;-61
2024/01/14 18:09:32;;;;;;;10.20;5.60;;;;;;;3.12;100.00;98708.45;178645;1270;43669;-62
2024/01/14 18:13:36;;;;;;;8.10;4.80;;;;;;;3.15;100.00;98701.52;178520;1270;58482;-60
2024/01/14 18:17:40;;;;;;;9.60;6.50;;;;;;;3.19;100.00;98698.12;178544;1270;46010;-62
2024/01/14 18:21:43;;;;;;;5.90;4.60;;;;;;;3.21;100.00;98704.77;178836;1270;46102;-62
2024/01/14 18:25:48;;;;;;;9.40;5.80;;;;;;;3.23;99.86;98700.21;178823;1270;43808;-60
2024/01/14 18:29:52;;;;;;;11.20;4.90;;;;;;;3.24;99.42;98700.00;178676;1270;44881;-62
2024/01/14 18:33:56;;;;;;;7.80;5.40;;;;;;;3.24;99.67;98696.69;178993;1270;57989;-61
2024/01/14 18:37:59;;;;;;;6.90;4.80;;;;;;;3.23;98.84;98695.73;178769;1270;45926;-62
2024/01/14 18:42:04;;;;;;;8.70;4.80;;;;;;;3.17;98.68;98688.30;178722;1269;45906;-61
2024/01/14 18:46:07;;;;;;;10.30;6.50;;;;;;;3.18;98.65;98684.55;178771;1268;46413;-62
2024/01/14 18:50:11;;;;;;;12.10;5.00;;;;;;;3.18;98.66;98676.30;178898;1269;45079;-59
2024/01/14 18:54:14;;;;;;;7.70;4.90;;;;;;;3.15;98.33;98669.71;178855;1270;58248;-61
2024/01/14 18:58:31;;;;;;;8.90;5.10;;;;;;;3.13;98.27;98663.00;178713;1270;46181;-61
2024/01/14 19:02:34;;;;;;;8.30;5.60;;;;;;;3.07;98.44;98660.62;178916;1269;44651;-60
2024/01/14 19:06:39;;;;;;;7.60;4.80;;;;;;;3.04;99.02;98656.85;178725;1268;46149;-61
2024/01/14 19:10:42;;;;;;;9.30;4.60;;;;;;;3.03;99.91;98653.81;178769;1270;43674;-63